Liege, Missouri
Current Conditions -  °F | °C
As of 4:35 PM on Tuesday 21 Oct 2014 (Local Time) from KFYG Reporting Station
Clear Clear  
Wind Chill: 66°   Ceiling: Unl
Heat Index: 66°   Visibility: 10mi
Dew Point: 45°   Wind: 7mph
Humidity: 46%   Direction: 80°E
Pressure: 30.1"   Gusts: NA
Location:  38.9997°N, 91.3365°W
Report Text: KFYG 212135Z AUTO 08006KT 10SM CLR 19/07 A3010 RMK AO2
Loading
Personal Weather Stations






























Interactive Weather Map
Tropical Storm Tracking
New forecast layout! Learn more

10-Day Weather Forecast

Advertisements
Track Severe Weather on mobile